sensor_id;sensor_type;location;lat;lon;timestamp;P1;durP1;ratioP1;P2;durP2;ratioP2
25435;SDS011;13363;52.772;-3.890;2023-09-19T00:01:34;6.53;;;1.90;;
25435;SDS011;13363;52.772;-3.890;2023-09-19T00:04:00;10.80;;;2.90;;
25435;SDS011;13363;52.772;-3.890;2023-09-19T00:06:30;9.23;;;3.10;;
25435;SDS011;13363;52.772;-3.890;2023-09-19T00:08:57;8.83;;;3.23;;
25435;SDS011;13363;52.772;-3.890;2023-09-19T00:11:25;11.20;;;3.10;;
25435;SDS011;13363;52.772;-3.890;2023-09-19T00:13:52;5.10;;;2.17;;
25435;SDS011;13363;52.772;-3.890;2023-09-19T00:16:18;11.03;;;3.00;;
25435;SDS011;13363;52.772;-3.890;2023-09-19T00:18:44;10.77;;;2.80;;
25435;SDS011;13363;52.772;-3.890;2023-09-19T00:21:10;8.77;;;2.73;;
25435;SDS011;13363;52.772;-3.890;2023-09-19T00:23:36;9.40;;;2.60;;
25435;SDS011;13363;52.772;-3.890;2023-09-19T00:26:02;15.03;;;3.23;;
25435;SDS011;13363;52.772;-3.890;2023-09-19T00:28:29;6.23;;;2.60;;
25435;SDS011;13363;52.772;-3.890;2023-09-19T00:30:56;11.83;;;2.47;;
25435;SDS011;13363;52.772;-3.890;2023-09-19T00:33:26;9.57;;;2.93;;
25435;SDS011;13363;52.772;-3.890;2023-09-19T00:35:54;11.97;;;2.87;;
25435;SDS011;13363;52.772;-3.890;2023-09-19T00:38:22;9.37;;;3.03;;
25435;SDS011;13363;52.772;-3.890;2023-09-19T00:40:52;10.63;;;3.20;;
25435;SDS011;13363;52.772;-3.890;2023-09-19T00:43:18;12.33;;;3.10;;
25435;SDS011;13363;52.772;-3.890;2023-09-19T00:45:46;11.97;;;2.77;;
25435;SDS011;13363;52.772;-3.890;2023-09-19T00:48:14;9.17;;;2.67;;
25435;SDS011;13363;52.772;-3.890;2023-09-19T00:50:43;10.10;;;2.60;;
25435;SDS011;13363;52.772;-3.890;2023-09-19T00:53:13;10.97;;;3.07;;
25435;SDS011;13363;52.772;-3.890;2023-09-19T00:55:40;7.30;;;2.77;;
25435;SDS011;13363;52.772;-3.890;2023-09-19T00:58:07;12.13;;;2.97;;
25435;SDS011;13363;52.772;-3.890;2023-09-19T01:00:35;10.17;;;3.10;;
25435;SDS011;13363;52.772;-3.890;2023-09-19T01:03:01;13.70;;;2.93;;
25435;SDS011;13363;52.772;-3.890;2023-09-19T01:05:28;8.80;;;2.57;;
25435;SDS011;13363;52.772;-3.890;2023-09-19T01:07:54;7.27;;;2.67;;
25435;SDS011;13363;52.772;-3.890;2023-09-19T01:10:20;7.47;;;2.40;;
25435;SDS011;13363;52.772;-3.890;2023-09-19T01:20:43;7.67;;;2.10;;
25435;SDS011;13363;52.772;-3.890;2023-09-19T01:26:07;8.43;;;3.47;;
25435;SDS011;13363;52.772;-3.890;2023-09-19T01:31:22;13.03;;;2.70;;
25435;SDS011;13363;52.772;-3.890;2023-09-19T01:34:08;8.93;;;2.20;;
25435;SDS011;13363;52.772;-3.890;2023-09-19T01:36:36;10.67;;;3.20;;
25435;SDS011;13363;52.772;-3.890;2023-09-19T01:39:12;7.97;;;2.50;;
25435;SDS011;13363;52.772;-3.890;2023-09-19T01:44:17;10.43;;;2.83;;
25435;SDS011;13363;52.772;-3.890;2023-09-19T01:47:19;8.77;;;2.97;;
25435;SDS011;13363;52.772;-3.890;2023-09-19T01:49:53;7.90;;;2.60;;
25435;SDS011;13363;52.772;-3.890;2023-09-19T01:52:31;13.47;;;2.97;;
25435;SDS011;13363;52.772;-3.890;2023-09-19T01:55:08;8.63;;;2.70;;
25435;SDS011;13363;52.772;-3.890;2023-09-19T01:57:40;7.17;;;2.40;;
25435;SDS011;13363;52.772;-3.890;2023-09-19T02:00:13;10.00;;;3.30;;
25435;SDS011;13363;52.772;-3.890;2023-09-19T02:02:45;9.40;;;3.57;;
25435;SDS011;13363;52.772;-3.890;2023-09-19T02:05:13;7.10;;;2.20;;
25435;SDS011;13363;52.772;-3.890;2023-09-19T02:07:47;6.67;;;1.67;;
25435;SDS011;13363;52.772;-3.890;2023-09-19T02:10:13;4.90;;;2.10;;
25435;SDS011;13363;52.772;-3.890;2023-09-19T02:12:39;10.23;;;2.20;;
25435;SDS011;13363;52.772;-3.890;2023-09-19T02:15:05;6.07;;;2.40;;
25435;SDS011;13363;52.772;-3.890;2023-09-19T02:17:32;5.73;;;2.07;;
25435;SDS011;13363;52.772;-3.890;2023-09-19T02:19:58;9.03;;;2.30;;
25435;SDS011;13363;52.772;-3.890;2023-09-19T02:22:28;7.27;;;1.93;;
25435;SDS011;13363;52.772;-3.890;2023-09-19T02:24:54;9.07;;;2.83;;
25435;SDS011;13363;52.772;-3.890;2023-09-19T02:27:23;7.23;;;2.43;;
25435;SDS011;13363;52.772;-3.890;2023-09-19T02:29:49;7.40;;;1.93;;
25435;SDS011;13363;52.772;-3.890;2023-09-19T02:32:16;8.93;;;2.67;;
25435;SDS011;13363;52.772;-3.890;2023-09-19T02:34:43;7.80;;;2.40;;
25435;SDS011;13363;52.772;-3.890;2023-09-19T02:37:09;5.83;;;2.53;;
25435;SDS011;13363;52.772;-3.890;2023-09-19T02:39:35;8.23;;;2.60;;
25435;SDS011;13363;52.772;-3.890;2023-09-19T02:42:01;9.07;;;2.23;;
25435;SDS011;13363;52.772;-3.890;2023-09-19T02:44:29;5.23;;;2.17;;
25435;SDS011;13363;52.772;-3.890;2023-09-19T02:46:55;10.43;;;2.50;;
25435;SDS011;13363;52.772;-3.890;2023-09-19T02:49:22;10.77;;;2.80;;
25435;SDS011;13363;52.772;-3.890;2023-09-19T02:51:48;3.97;;;2.30;;
25435;SDS011;13363;52.772;-3.890;2023-09-19T02:54:14;7.50;;;3.07;;
25435;SDS011;13363;52.772;-3.890;2023-09-19T02:56:41;11.40;;;2.60;;
25435;SDS011;13363;52.772;-3.890;2023-09-19T02:59:07;10.63;;;2.77;;
25435;SDS011;13363;52.772;-3.890;2023-09-19T03:01:35;15.13;;;3.03;;
25435;SDS011;13363;52.772;-3.890;2023-09-19T03:04:02;13.23;;;3.20;;
25435;SDS011;13363;52.772;-3.890;2023-09-19T03:06:28;11.13;;;3.10;;
25435;SDS011;13363;52.772;-3.890;2023-09-19T03:08:56;12.77;;;3.23;;
25435;SDS011;13363;52.772;-3.890;2023-09-19T03:11:22;9.90;;;2.90;;
25435;SDS011;13363;52.772;-3.890;2023-09-19T03:13:51;11.37;;;2.83;;
25435;SDS011;13363;52.772;-3.890;2023-09-19T03:16:18;8.63;;;1.97;;
25435;SDS011;13363;52.772;-3.890;2023-09-19T03:18:46;5.80;;;1.60;;
25435;SDS011;13363;52.772;-3.890;2023-09-19T03:21:14;1.10;;;0.90;;
25435;SDS011;13363;52.772;-3.890;2023-09-19T03:23:40;2.73;;;1.03;;
25435;SDS011;13363;52.772;-3.890;2023-09-19T03:26:10;3.07;;;1.17;;
25435;SDS011;13363;52.772;-3.890;2023-09-19T03:28:37;5.37;;;1.47;;
25435;SDS011;13363;52.772;-3.890;2023-09-19T03:31:04;3.03;;;1.30;;
25435;SDS011;13363;52.772;-3.890;2023-09-19T03:33:31;3.83;;;1.80;;
25435;SDS011;13363;52.772;-3.890;2023-09-19T03:35:58;8.33;;;2.47;;
25435;SDS011;13363;52.772;-3.890;2023-09-19T03:38:24;9.37;;;2.33;;
25435;SDS011;13363;52.772;-3.890;2023-09-19T03:40:50;11.93;;;2.63;;
25435;SDS011;13363;52.772;-3.890;2023-09-19T03:43:16;9.83;;;2.77;;
25435;SDS011;13363;52.772;-3.890;2023-09-19T03:45:42;6.13;;;2.07;;
25435;SDS011;13363;52.772;-3.890;2023-09-19T03:48:09;13.30;;;2.67;;
25435;SDS011;13363;52.772;-3.890;2023-09-19T03:50:35;7.27;;;2.37;;
25435;SDS011;13363;52.772;-3.890;2023-09-19T03:53:01;11.77;;;3.17;;
25435;SDS011;13363;52.772;-3.890;2023-09-19T03:55:27;14.97;;;3.47;;
25435;SDS011;13363;52.772;-3.890;2023-09-19T03:57:55;19.57;;;3.53;;
25435;SDS011;13363;52.772;-3.890;2023-09-19T04:00:22;13.87;;;4.10;;
25435;SDS011;13363;52.772;-3.890;2023-09-19T04:02:51;11.40;;;3.20;;
25435;SDS011;13363;52.772;-3.890;2023-09-19T04:05:18;10.07;;;3.43;;
25435;SDS011;13363;52.772;-3.890;2023-09-19T04:07:44;10.17;;;3.60;;
25435;SDS011;13363;52.772;-3.890;2023-09-19T04:10:10;6.40;;;3.27;;
25435;SDS011;13363;52.772;-3.890;2023-09-19T04:12:39;5.37;;;3.10;;
25435;SDS011;13363;52.772;-3.890;2023-09-19T04:15:06;10.63;;;4.23;;
25435;SDS011;13363;52.772;-3.890;2023-09-19T04:17:32;6.47;;;4.03;;
25435;SDS011;13363;52.772;-3.890;2023-09-19T04:19:58;13.70;;;4.07;;
25435;SDS011;13363;52.772;-3.890;2023-09-19T04:22:24;13.30;;;4.03;;
25435;SDS011;13363;52.772;-3.890;2023-09-19T04:24:50;9.87;;;3.30;;
25435;SDS011;13363;52.772;-3.890;2023-09-19T04:27:16;3.97;;;2.73;;
25435;SDS011;13363;52.772;-3.890;2023-09-19T04:29:43;15.17;;;3.63;;
25435;SDS011;13363;52.772;-3.890;2023-09-19T04:32:09;9.33;;;3.10;;
25435;SDS011;13363;52.772;-3.890;2023-09-19T04:34:35;5.73;;;3.13;;
25435;SDS011;13363;52.772;-3.890;2023-09-19T04:37:03;12.47;;;3.70;;
25435;SDS011;13363;52.772;-3.890;2023-09-19T04:39:29;9.90;;;3.27;;
25435;SDS011;13363;52.772;-3.890;2023-09-19T04:41:55;12.83;;;3.77;;
25435;SDS011;13363;52.772;-3.890;2023-09-19T04:44:22;10.10;;;3.90;;
25435;SDS011;13363;52.772;-3.890;2023-09-19T04:46:47;15.07;;;3.93;;
25435;SDS011;13363;52.772;-3.890;2023-09-19T04:49:13;12.77;;;3.40;;
25435;SDS011;13363;52.772;-3.890;2023-09-19T04:51:39;14.70;;;4.23;;
25435;SDS011;13363;52.772;-3.890;2023-09-19T04:54:05;16.53;;;4.67;;
25435;SDS011;13363;52.772;-3.890;2023-09-19T04:56:31;9.30;;;3.57;;
25435;SDS011;13363;52.772;-3.890;2023-09-19T04:58:58;9.83;;;2.70;;
25435;SDS011;13363;52.772;-3.890;2023-09-19T05:01:25;14.13;;;3.07;;
25435;SDS011;13363;52.772;-3.890;2023-09-19T05:03:51;10.37;;;2.87;;
25435;SDS011;13363;52.772;-3.890;2023-09-19T05:06:18;13.00;;;3.77;;
25435;SDS011;13363;52.772;-3.890;2023-09-19T05:08:46;12.80;;;3.03;;
25435;SDS011;13363;52.772;-3.890;2023-09-19T05:11:20;9.33;;;3.40;;
25435;SDS011;13363;52.772;-3.890;2023-09-19T05:13:48;12.90;;;3.67;;
25435;SDS011;13363;52.772;-3.890;2023-09-19T05:16:18;13.93;;;3.97;;
25435;SDS011;13363;52.772;-3.890;2023-09-19T05:18:44;9.60;;;2.67;;
25435;SDS011;13363;52.772;-3.890;2023-09-19T05:21:10;11.17;;;3.70;;
25435;SDS011;13363;52.772;-3.890;2023-09-19T05:23:36;11.03;;;2.90;;
25435;SDS011;13363;52.772;-3.890;2023-09-19T05:26:02;11.83;;;3.50;;
25435;SDS011;13363;52.772;-3.890;2023-09-19T05:28:29;13.37;;;3.20;;
25435;SDS011;13363;52.772;-3.890;2023-09-19T05:30:55;13.20;;;3.73;;
25435;SDS011;13363;52.772;-3.890;2023-09-19T05:33:20;16.73;;;4.60;;
25435;SDS011;13363;52.772;-3.890;2023-09-19T05:35:49;5.10;;;2.47;;
25435;SDS011;13363;52.772;-3.890;2023-09-19T05:38:15;8.63;;;2.70;;
25435;SDS011;13363;52.772;-3.890;2023-09-19T05:40:44;14.20;;;4.10;;
25435;SDS011;13363;52.772;-3.890;2023-09-19T05:43:10;10.07;;;3.33;;
25435;SDS011;13363;52.772;-3.890;2023-09-19T05:45:36;12.47;;;3.70;;
25435;SDS011;13363;52.772;-3.890;2023-09-19T05:48:12;5.00;;;2.40;;
25435;SDS011;13363;52.772;-3.890;2023-09-19T05:50:40;9.43;;;3.33;;
25435;SDS011;13363;52.772;-3.890;2023-09-19T05:53:06;4.47;;;2.13;;
25435;SDS011;13363;52.772;-3.890;2023-09-19T05:55:33;7.67;;;2.27;;
25435;SDS011;13363;52.772;-3.890;2023-09-19T05:58:00;5.73;;;2.33;;
25435;SDS011;13363;52.772;-3.890;2023-09-19T06:00:28;5.53;;;1.70;;
25435;SDS011;13363;52.772;-3.890;2023-09-19T06:02:55;3.70;;;1.23;;
25435;SDS011;13363;52.772;-3.890;2023-09-19T06:05:22;1.83;;;1.43;;
25435;SDS011;13363;52.772;-3.890;2023-09-19T06:07:52;3.87;;;1.17;;
25435;SDS011;13363;52.772;-3.890;2023-09-19T06:10:18;5.43;;;1.47;;
25435;SDS011;13363;52.772;-3.890;2023-09-19T06:12:46;1.20;;;1.00;;
25435;SDS011;13363;52.772;-3.890;2023-09-19T06:15:13;1.27;;;1.13;;
25435;SDS011;13363;52.772;-3.890;2023-09-19T06:17:49;6.07;;;1.50;;
25435;SDS011;13363;52.772;-3.890;2023-09-19T06:20:16;5.13;;;1.93;;
25435;SDS011;13363;52.772;-3.890;2023-09-19T06:22:42;2.63;;;1.87;;
25435;SDS011;13363;52.772;-3.890;2023-09-19T06:25:09;5.27;;;1.47;;
25435;SDS011;13363;52.772;-3.890;2023-09-19T06:27:39;6.30;;;1.93;;
25435;SDS011;13363;52.772;-3.890;2023-09-19T06:30:09;2.80;;;1.37;;
25435;SDS011;13363;52.772;-3.890;2023-09-19T06:32:39;3.73;;;1.10;;
25435;SDS011;13363;52.772;-3.890;2023-09-19T06:35:13;0.97;;;0.77;;
25435;SDS011;13363;52.772;-3.890;2023-09-19T06:37:40;1.60;;;1.37;;
25435;SDS011;13363;52.772;-3.890;2023-09-19T06:42:38;3.27;;;1.20;;
25435;SDS011;13363;52.772;-3.890;2023-09-19T06:45:05;1.40;;;0.47;;
25435;SDS011;13363;52.772;-3.890;2023-09-19T06:47:32;2.37;;;1.00;;
25435;SDS011;13363;52.772;-3.890;2023-09-19T06:49:58;3.67;;;1.20;;
25435;SDS011;13363;52.772;-3.890;2023-09-19T06:52:23;1.70;;;0.93;;
25435;SDS011;13363;52.772;-3.890;2023-09-19T06:54:52;1.47;;;0.67;;
25435;SDS011;13363;52.772;-3.890;2023-09-19T06:57:18;3.43;;;0.70;;
25435;SDS011;13363;52.772;-3.890;2023-09-19T06:59:45;1.60;;;0.80;;
25435;SDS011;13363;52.772;-3.890;2023-09-19T07:02:11;4.17;;;1.03;;
25435;SDS011;13363;52.772;-3.890;2023-09-19T07:04:38;1.13;;;0.73;;
25435;SDS011;13363;52.772;-3.890;2023-09-19T07:07:04;0.93;;;0.57;;
25435;SDS011;13363;52.772;-3.890;2023-09-19T07:09:32;1.67;;;0.97;;
25435;SDS011;13363;52.772;-3.890;2023-09-19T07:11:58;1.37;;;0.97;;
25435;SDS011;13363;52.772;-3.890;2023-09-19T07:14:24;3.60;;;1.23;;
25435;SDS011;13363;52.772;-3.890;2023-09-19T07:16:49;3.07;;;1.37;;
25435;SDS011;13363;52.772;-3.890;2023-09-19T07:19:15;3.20;;;1.47;;
25435;SDS011;13363;52.772;-3.890;2023-09-19T07:21:41;5.37;;;1.63;;
25435;SDS011;13363;52.772;-3.890;2023-09-19T07:24:07;4.57;;;1.40;;
25435;SDS011;13363;52.772;-3.890;2023-09-19T07:26:33;10.30;;;2.47;;
25435;SDS011;13363;52.772;-3.890;2023-09-19T07:28:59;5.00;;;1.60;;
25435;SDS011;13363;52.772;-3.890;2023-09-19T07:31:29;7.07;;;2.57;;
25435;SDS011;13363;52.772;-3.890;2023-09-19T07:33:56;9.53;;;2.03;;
25435;SDS011;13363;52.772;-3.890;2023-09-19T07:36:21;14.90;;;2.53;;
25435;SDS011;13363;52.772;-3.890;2023-09-19T07:38:49;7.23;;;1.77;;
25435;SDS011;13363;52.772;-3.890;2023-09-19T07:41:15;14.13;;;2.70;;
25435;SDS011;13363;52.772;-3.890;2023-09-19T07:43:41;11.60;;;2.97;;
25435;SDS011;13363;52.772;-3.890;2023-09-19T07:46:08;10.97;;;3.13;;
25435;SDS011;13363;52.772;-3.890;2023-09-19T07:48:36;7.27;;;1.93;;
25435;SDS011;13363;52.772;-3.890;2023-09-19T07:51:06;9.77;;;2.63;;
25435;SDS011;13363;52.772;-3.890;2023-09-19T07:53:34;15.03;;;3.60;;
25435;SDS011;13363;52.772;-3.890;2023-09-19T07:56:04;10.33;;;2.90;;
25435;SDS011;13363;52.772;-3.890;2023-09-19T07:58:30;11.17;;;3.23;;
25435;SDS011;13363;52.772;-3.890;2023-09-19T08:01:08;11.03;;;2.90;;
25435;SDS011;13363;52.772;-3.890;2023-09-19T08:03:35;13.17;;;3.13;;
25435;SDS011;13363;52.772;-3.890;2023-09-19T08:06:06;15.27;;;3.10;;
25435;SDS011;13363;52.772;-3.890;2023-09-19T08:08:33;14.17;;;3.07;;
25435;SDS011;13363;52.772;-3.890;2023-09-19T08:11:02;13.70;;;3.83;;
25435;SDS011;13363;52.772;-3.890;2023-09-19T08:13:35;12.17;;;3.07;;
25435;SDS011;13363;52.772;-3.890;2023-09-19T08:16:03;14.37;;;3.50;;
25435;SDS011;13363;52.772;-3.890;2023-09-19T08:18:30;10.23;;;3.73;;
25435;SDS011;13363;52.772;-3.890;2023-09-19T08:20:55;9.00;;;2.70;;
25435;SDS011;13363;52.772;-3.890;2023-09-19T08:23:23;9.27;;;2.63;;
25435;SDS011;13363;52.772;-3.890;2023-09-19T08:25:50;8.17;;;3.57;;
25435;SDS011;13363;52.772;-3.890;2023-09-19T08:28:20;12.07;;;3.47;;
25435;SDS011;13363;52.772;-3.890;2023-09-19T08:30:49;4.27;;;2.37;;
25435;SDS011;13363;52.772;-3.890;2023-09-19T08:33:16;10.33;;;2.67;;
25435;SDS011;13363;52.772;-3.890;2023-09-19T08:35:42;12.20;;;3.00;;
25435;SDS011;13363;52.772;-3.890;2023-09-19T08:38:09;8.00;;;2.60;;
25435;SDS011;13363;52.772;-3.890;2023-09-19T08:40:39;6.50;;;2.53;;
25435;SDS011;13363;52.772;-3.890;2023-09-19T08:43:07;5.67;;;1.63;;
25435;SDS011;13363;52.772;-3.890;2023-09-19T08:45:33;10.40;;;3.37;;
25435;SDS011;13363;52.772;-3.890;2023-09-19T08:50:28;10.03;;;2.40;;
25435;SDS011;13363;52.772;-3.890;2023-09-19T08:52:56;8.20;;;2.40;;
25435;SDS011;13363;52.772;-3.890;2023-09-19T08:55:26;16.50;;;3.63;;
25435;SDS011;13363;52.772;-3.890;2023-09-19T08:57:58;7.43;;;2.50;;
25435;SDS011;13363;52.772;-3.890;2023-09-19T09:00:27;15.70;;;2.93;;
25435;SDS011;13363;52.772;-3.890;2023-09-19T09:02:55;12.63;;;3.10;;
25435;SDS011;13363;52.772;-3.890;2023-09-19T09:05:23;13.07;;;3.10;;
25435;SDS011;13363;52.772;-3.890;2023-09-19T09:07:51;8.93;;;3.00;;
25435;SDS011;13363;52.772;-3.890;2023-09-19T09:10:20;16.17;;;3.77;;
25435;SDS011;13363;52.772;-3.890;2023-09-19T09:12:50;6.73;;;2.20;;
25435;SDS011;13363;52.772;-3.890;2023-09-19T09:15:21;8.23;;;1.70;;
25435;SDS011;13363;52.772;-3.890;2023-09-19T09:17:48;10.13;;;3.20;;
25435;SDS011;13363;52.772;-3.890;2023-09-19T09:20:18;9.67;;;2.47;;
25435;SDS011;13363;52.772;-3.890;2023-09-19T09:22:51;10.77;;;3.03;;
25435;SDS011;13363;52.772;-3.890;2023-09-19T09:25:19;11.93;;;3.80;;
25435;SDS011;13363;52.772;-3.890;2023-09-19T09:27:58;11.63;;;2.70;;
25435;SDS011;13363;52.772;-3.890;2023-09-19T09:30:32;15.33;;;3.20;;
25435;SDS011;13363;52.772;-3.890;2023-09-19T09:33:10;9.00;;;2.97;;
25435;SDS011;13363;52.772;-3.890;2023-09-19T09:35:37;13.67;;;4.27;;
25435;SDS011;13363;52.772;-3.890;2023-09-19T09:38:26;12.13;;;2.97;;
25435;SDS011;13363;52.772;-3.890;2023-09-19T09:40:56;23.83;;;4.70;;
25435;SDS011;13363;52.772;-3.890;2023-09-19T09:43:35;12.90;;;3.03;;
25435;SDS011;13363;52.772;-3.890;2023-09-19T09:46:16;20.30;;;4.23;;
25435;SDS011;13363;52.772;-3.890;2023-09-19T09:48:45;15.50;;;3.87;;
25435;SDS011;13363;52.772;-3.890;2023-09-19T09:51:58;11.23;;;3.40;;
25435;SDS011;13363;52.772;-3.890;2023-09-19T09:54:57;17.13;;;2.80;;
25435;SDS011;13363;52.772;-3.890;2023-09-19T09:57:33;15.83;;;2.93;;
25435;SDS011;13363;52.772;-3.890;2023-09-19T10:00:07;21.10;;;3.87;;
25435;SDS011;13363;52.772;-3.890;2023-09-19T10:02:39;12.40;;;3.23;;
25435;SDS011;13363;52.772;-3.890;2023-09-19T10:08:11;18.00;;;3.40;;
25435;SDS011;13363;52.772;-3.890;2023-09-19T10:10:39;23.23;;;4.43;;
25435;SDS011;13363;52.772;-3.890;2023-09-19T10:13:08;24.77;;;4.53;;
25435;SDS011;13363;52.772;-3.890;2023-09-19T10:15:43;25.13;;;3.53;;
25435;SDS011;13363;52.772;-3.890;2023-09-19T10:18:25;17.33;;;4.20;;
25435;SDS011;13363;52.772;-3.890;2023-09-19T10:20:53;21.17;;;4.70;;
25435;SDS011;13363;52.772;-3.890;2023-09-19T10:23:20;21.73;;;4.57;;
25435;SDS011;13363;52.772;-3.890;2023-09-19T10:25:51;19.43;;;4.40;;
25435;SDS011;13363;52.772;-3.890;2023-09-19T10:28:18;15.93;;;3.70;;
25435;SDS011;13363;52.772;-3.890;2023-09-19T10:30:49;17.83;;;3.57;;
25435;SDS011;13363;52.772;-3.890;2023-09-19T10:33:19;8.70;;;2.93;;
25435;SDS011;13363;52.772;-3.890;2023-09-19T10:35:51;14.77;;;3.47;;
25435;SDS011;13363;52.772;-3.890;2023-09-19T10:38:18;16.57;;;4.27;;
25435;SDS011;13363;52.772;-3.890;2023-09-19T10:40:48;23.47;;;5.03;;
25435;SDS011;13363;52.772;-3.890;2023-09-19T10:43:16;16.93;;;3.30;;
25435;SDS011;13363;52.772;-3.890;2023-09-19T10:45:44;22.50;;;5.27;;
25435;SDS011;13363;52.772;-3.890;2023-09-19T10:48:13;31.40;;;4.77;;
25435;SDS011;13363;52.772;-3.890;2023-09-19T10:50:46;24.70;;;5.07;;
25435;SDS011;13363;52.772;-3.890;2023-09-19T10:53:20;10.97;;;3.83;;
25435;SDS011;13363;52.772;-3.890;2023-09-19T10:55:56;11.50;;;3.87;;
25435;SDS011;13363;52.772;-3.890;2023-09-19T10:58:28;13.17;;;3.40;;
25435;SDS011;13363;52.772;-3.890;2023-09-19T11:01:00;21.07;;;4.37;;
25435;SDS011;13363;52.772;-3.890;2023-09-19T11:03:37;12.53;;;4.07;;
25435;SDS011;13363;52.772;-3.890;2023-09-19T11:06:12;20.50;;;5.03;;
25435;SDS011;13363;52.772;-3.890;2023-09-19T11:09:00;32.30;;;6.03;;
25435;SDS011;13363;52.772;-3.890;2023-09-19T11:17:42;24.03;;;4.43;;
25435;SDS011;13363;52.772;-3.890;2023-09-19T11:30:42;29.03;;;6.20;;
25435;SDS011;13363;52.772;-3.890;2023-09-19T11:36:07;31.00;;;5.07;;
25435;SDS011;13363;52.772;-3.890;2023-09-19T11:43:48;25.20;;;5.00;;
25435;SDS011;13363;52.772;-3.890;2023-09-19T11:46:56;25.60;;;5.10;;
25435;SDS011;13363;52.772;-3.890;2023-09-19T11:49:27;25.00;;;5.67;;
25435;SDS011;13363;52.772;-3.890;2023-09-19T11:52:04;23.87;;;5.07;;
25435;SDS011;13363;52.772;-3.890;2023-09-19T11:54:33;16.23;;;3.77;;
25435;SDS011;13363;52.772;-3.890;2023-09-19T11:57:04;21.43;;;5.17;;
25435;SDS011;13363;52.772;-3.890;2023-09-19T11:59:38;23.37;;;4.83;;
25435;SDS011;13363;52.772;-3.890;2023-09-19T12:02:05;17.90;;;4.77;;
25435;SDS011;13363;52.772;-3.890;2023-09-19T12:04:39;11.93;;;4.00;;
25435;SDS011;13363;52.772;-3.890;2023-09-19T12:07:09;19.77;;;4.87;;
25435;SDS011;13363;52.772;-3.890;2023-09-19T12:09:40;25.00;;;5.67;;
25435;SDS011;13363;52.772;-3.890;2023-09-19T12:12:25;30.27;;;5.37;;
25435;SDS011;13363;52.772;-3.890;2023-09-19T12:14:59;35.77;;;7.30;;
25435;SDS011;13363;52.772;-3.890;2023-09-19T12:17:40;41.97;;;6.97;;
25435;SDS011;13363;52.772;-3.890;2023-09-19T12:20:08;22.90;;;5.93;;
25435;SDS011;13363;52.772;-3.890;2023-09-19T12:22:44;27.37;;;5.47;;
25435;SDS011;13363;52.772;-3.890;2023-09-19T12:25:12;30.10;;;6.23;;
25435;SDS011;13363;52.772;-3.890;2023-09-19T12:27:42;30.90;;;6.67;;
25435;SDS011;13363;52.772;-3.890;2023-09-19T12:30:12;34.83;;;7.83;;
25435;SDS011;13363;52.772;-3.890;2023-09-19T12:32:43;37.00;;;7.90;;
25435;SDS011;13363;52.772;-3.890;2023-09-19T12:35:09;27.43;;;5.60;;
25435;SDS011;13363;52.772;-3.890;2023-09-19T12:37:54;33.20;;;6.73;;
25435;SDS011;13363;52.772;-3.890;2023-09-19T12:40:20;37.43;;;7.57;;
25435;SDS011;13363;52.772;-3.890;2023-09-19T12:42:48;30.07;;;6.17;;
25435;SDS011;13363;52.772;-3.890;2023-09-19T12:45:14;27.07;;;6.57;;
25435;SDS011;13363;52.772;-3.890;2023-09-19T12:51:12;35.40;;;7.37;;
25435;SDS011;13363;52.772;-3.890;2023-09-19T12:53:42;30.03;;;7.23;;
25435;SDS011;13363;52.772;-3.890;2023-09-19T12:56:17;20.23;;;6.30;;
25435;SDS011;13363;52.772;-3.890;2023-09-19T13:01:16;28.07;;;6.40;;
25435;SDS011;13363;52.772;-3.890;2023-09-19T13:03:42;30.27;;;6.90;;
25435;SDS011;13363;52.772;-3.890;2023-09-19T13:06:08;24.90;;;7.07;;
25435;SDS011;13363;52.772;-3.890;2023-09-19T13:08:35;19.73;;;5.10;;
25435;SDS011;13363;52.772;-3.890;2023-09-19T13:11:15;13.30;;;3.90;;
25435;SDS011;13363;52.772;-3.890;2023-09-19T13:13:50;32.20;;;7.73;;
25435;SDS011;13363;52.772;-3.890;2023-09-19T13:19:40;37.00;;;7.60;;
25435;SDS011;13363;52.772;-3.890;2023-09-19T13:22:39;32.93;;;7.07;;
25435;SDS011;13363;52.772;-3.890;2023-09-19T13:25:19;28.27;;;6.73;;
25435;SDS011;13363;52.772;-3.890;2023-09-19T13:27:49;29.23;;;5.47;;
25435;SDS011;13363;52.772;-3.890;2023-09-19T13:30:21;21.63;;;5.87;;
25435;SDS011;13363;52.772;-3.890;2023-09-19T13:32:51;27.50;;;6.50;;
25435;SDS011;13363;52.772;-3.890;2023-09-19T13:35:19;24.03;;;5.50;;
25435;SDS011;13363;52.772;-3.890;2023-09-19T13:37:46;33.53;;;6.90;;
25435;SDS011;13363;52.772;-3.890;2023-09-19T13:40:14;39.70;;;7.50;;
25435;SDS011;13363;52.772;-3.890;2023-09-19T13:42:40;26.10;;;5.70;;
25435;SDS011;13363;52.772;-3.890;2023-09-19T13:45:08;30.57;;;5.57;;
25435;SDS011;13363;52.772;-3.890;2023-09-19T13:47:37;19.77;;;5.10;;
25435;SDS011;13363;52.772;-3.890;2023-09-19T13:50:03;30.83;;;6.47;;
25435;SDS011;13363;52.772;-3.890;2023-09-19T13:52:30;21.03;;;5.20;;
25435;SDS011;13363;52.772;-3.890;2023-09-19T13:54:56;22.33;;;4.67;;
25435;SDS011;13363;52.772;-3.890;2023-09-19T13:57:23;33.60;;;8.20;;
25435;SDS011;13363;52.772;-3.890;2023-09-19T13:59:49;37.20;;;7.43;;
25435;SDS011;13363;52.772;-3.890;2023-09-19T14:02:16;31.97;;;7.00;;
25435;SDS011;13363;52.772;-3.890;2023-09-19T14:04:47;34.40;;;7.80;;
25435;SDS011;13363;52.772;-3.890;2023-09-19T14:07:14;35.73;;;7.00;;
25435;SDS011;13363;52.772;-3.890;2023-09-19T14:09:42;37.20;;;6.97;;
25435;SDS011;13363;52.772;-3.890;2023-09-19T14:12:08;35.80;;;6.63;;
25435;SDS011;13363;52.772;-3.890;2023-09-19T14:14:34;21.03;;;4.53;;
25435;SDS011;13363;52.772;-3.890;2023-09-19T14:17:00;35.97;;;7.43;;
25435;SDS011;13363;52.772;-3.890;2023-09-19T14:19:26;29.97;;;4.97;;
25435;SDS011;13363;52.772;-3.890;2023-09-19T14:21:53;19.03;;;5.10;;
25435;SDS011;13363;52.772;-3.890;2023-09-19T14:24:22;27.17;;;6.27;;
25435;SDS011;13363;52.772;-3.890;2023-09-19T14:26:48;28.80;;;6.50;;
25435;SDS011;13363;52.772;-3.890;2023-09-19T14:29:14;21.03;;;4.83;;
25435;SDS011;13363;52.772;-3.890;2023-09-19T14:31:41;30.30;;;6.83;;
25435;SDS011;13363;52.772;-3.890;2023-09-19T14:34:07;34.10;;;6.53;;
25435;SDS011;13363;52.772;-3.890;2023-09-19T14:36:36;14.80;;;4.17;;
25435;SDS011;13363;52.772;-3.890;2023-09-19T14:39:07;25.77;;;5.23;;
25435;SDS011;13363;52.772;-3.890;2023-09-19T14:41:36;29.13;;;6.07;;
25435;SDS011;13363;52.772;-3.890;2023-09-19T14:44:02;20.77;;;5.10;;
25435;SDS011;13363;52.772;-3.890;2023-09-19T14:46:30;29.97;;;5.53;;
25435;SDS011;13363;52.772;-3.890;2023-09-19T14:48:56;31.77;;;6.10;;
25435;SDS011;13363;52.772;-3.890;2023-09-19T14:51:25;34.13;;;7.17;;
25435;SDS011;13363;52.772;-3.890;2023-09-19T14:53:51;19.37;;;5.73;;
25435;SDS011;13363;52.772;-3.890;2023-09-19T14:56:18;15.60;;;4.63;;
25435;SDS011;13363;52.772;-3.890;2023-09-19T14:58:45;19.37;;;5.10;;
25435;SDS011;13363;52.772;-3.890;2023-09-19T15:01:12;28.50;;;6.33;;
25435;SDS011;13363;52.772;-3.890;2023-09-19T15:03:39;35.03;;;7.67;;
25435;SDS011;13363;52.772;-3.890;2023-09-19T15:06:07;21.70;;;5.73;;
25435;SDS011;13363;52.772;-3.890;2023-09-19T15:08:45;26.40;;;6.17;;
25435;SDS011;13363;52.772;-3.890;2023-09-19T15:11:18;31.83;;;6.60;;
25435;SDS011;13363;52.772;-3.890;2023-09-19T15:13:45;30.27;;;6.43;;
25435;SDS011;13363;52.772;-3.890;2023-09-19T15:19:17;20.37;;;5.47;;
25435;SDS011;13363;52.772;-3.890;2023-09-19T15:21:43;27.40;;;5.60;;
25435;SDS011;13363;52.772;-3.890;2023-09-19T15:24:09;30.17;;;6.23;;
25435;SDS011;13363;52.772;-3.890;2023-09-19T15:26:38;27.83;;;4.87;;
25435;SDS011;13363;52.772;-3.890;2023-09-19T15:29:07;22.43;;;5.27;;
25435;SDS011;13363;52.772;-3.890;2023-09-19T15:31:34;14.80;;;4.23;;
25435;SDS011;13363;52.772;-3.890;2023-09-19T15:34:04;21.33;;;5.60;;
25435;SDS011;13363;52.772;-3.890;2023-09-19T15:36:33;22.60;;;5.00;;
25435;SDS011;13363;52.772;-3.890;2023-09-19T15:44:02;26.67;;;5.07;;